Ralls, Texas
Current Conditions -  °F | °C
As of 2:53 PM on Friday 28 Nov 2014 (Local Time) from KLBB Reporting Station
Broken Clouds Broken Clouds  
Wind Chill: 76°   Ceiling: 30000
Heat Index: 76°   Visibility: 10mi
Dew Point: 26°   Wind: 17mph
Humidity: 16%   Direction: 230°SW
Pressure: 29.98"   Gusts: NA
Location:  33.67°N, 101.39°W
Report Text: KLBB 282053Z 23015KT 10SM FEW260 BKN300 24/M03 A2998 RMK AO2 SLP120 T02441033 56031
Loading
Personal Weather Stations






























Interactive Weather Map New forecast layout! Learn more

10-Day Weather Forecast

Advertisements
Track Severe Weather on mobile